Time;durP1;ratioP1;P1;durP2;ratioP2;P2;SDS_P1;SDS_P2;PMS_P1;PMS_P2;Temp;Humidity;BMP_temperature;BMP_pressure;BME280_temperature;BME280_humidity;BME280_pressure;Samples;Min_cycle;Max_cycle;Signal;HPM_P1;HPM_P2
2022/05/10 00:00:12;;;;;;;0.37;0.37;;;;;;;;;;1865123;76;26321;-42
2022/05/10 00:02:41;;;;;;;1.22;0.50;;;;;;;;;;1868002;75;26741;-40
2022/05/10 00:05:09;;;;;;;0.50;0.50;;;;;;;;;;1878045;76;26243;-41
2022/05/10 00:07:37;;;;;;;0.50;0.50;;;;;;;;;;1879216;76;26796;-43
2022/05/10 00:10:09;;;;;;;1.57;0.60;;;;;;;;;;1876453;76;26271;-42
2022/05/10 00:12:37;;;;;;;0.37;0.37;;;;;;;;;;1869889;75;27534;-45
2022/05/10 00:15:06;;;;;;;0.50;0.50;;;;;;;;;;1875746;75;26609;-44
2022/05/10 00:17:35;;;;;;;0.50;0.50;;;;;;;;;;1870040;76;27493;-43
2022/05/10 00:20:03;;;;;;;0.50;0.50;;;;;;;;;;1872208;75;26239;-42
2022/05/10 00:22:31;;;;;;;0.40;0.40;;;;;;;;;;1879970;76;26255;-47
2022/05/10 00:24:59;;;;;;;0.50;0.50;;;;;;;;;;1876161;75;26875;-43
2022/05/10 00:27:26;;;;;;;0.53;0.50;;;;;;;;;;1879985;76;26820;-44
2022/05/10 00:29:53;;;;;;;0.40;0.40;;;;;;;;;;1858652;76;26628;-44
2022/05/10 00:32:21;;;;;;;0.80;0.62;;;;;;;;;;1888174;75;26735;-42
2022/05/10 00:34:48;;;;;;;2.65;0.35;;;;;;;;;;1873846;75;26258;-42
2022/05/10 00:37:17;;;;;;;0.50;0.50;;;;;;;;;;1887981;74;26218;-42
2022/05/10 00:39:44;;;;;;;0.60;0.60;;;;;;;;;;1873697;75;26429;-41
2022/05/10 00:42:13;;;;;;;0.60;0.60;;;;;;;;;;1895504;75;26333;-41
2022/05/10 00:44:42;;;;;;;0.45;0.45;;;;;;;;;;1878200;75;26223;-41
2022/05/10 00:47:19;;;;;;;1.55;0.45;;;;;;;;;;1885243;74;26330;-42
2022/05/10 00:49:48;;;;;;;0.40;0.40;;;;;;;;;;1875429;75;27342;-45
2022/05/10 00:52:26;;;;;;;0.30;0.30;;;;;;;;;;1885823;75;26878;-42
2022/05/10 00:54:55;;;;;;;0.50;0.50;;;;;;;;;;1895317;75;26713;-46
2022/05/10 00:57:29;;;;;;;0.60;0.60;;;;;;;;;;1895286;75;26772;-42
2022/05/10 00:59:58;;;;;;;0.70;0.70;;;;;;;;;;1894289;74;26710;-46
2022/05/10 01:02:39;;;;;;;0.68;0.68;;;;;;;;;;1895098;75;26266;-46
2022/05/10 01:05:08;;;;;;;0.72;0.60;;;;;;;;;;1882253;75;26314;-43
2022/05/10 01:07:37;;;;;;;0.50;0.50;;;;;;;;;;1895618;74;26277;-47
2022/05/10 01:10:25;;;;;;;1.30;0.60;;;;;;;;;;1888415;74;26348;-42
2022/05/10 01:12:53;;;;;;;0.50;0.50;;;;;;;;;;1894711;75;26243;-46
2022/05/10 01:15:22;;;;;;;1.07;0.60;;;;;;;;;;1879738;75;26267;-45
2022/05/10 01:17:51;;;;;;;1.85;0.50;;;;;;;;;;1883701;75;26242;-44
2022/05/10 01:20:20;;;;;;;0.95;0.60;;;;;;;;;;1873760;74;26237;-44
2022/05/10 01:22:49;;;;;;;1.80;0.55;;;;;;;;;;1888488;75;26257;-44
2022/05/10 01:25:17;;;;;;;0.85;0.65;;;;;;;;;;1892194;75;26239;-46
2022/05/10 01:28:03;;;;;;;1.20;0.53;;;;;;;;;;1895466;75;26235;-43
2022/05/10 01:30:31;;;;;;;1.17;0.53;;;;;;;;;;1889804;75;26713;-42
2022/05/10 01:35:52;;;;;;;1.98;0.70;;;;;;;;;;1872432;76;26362;-42
2022/05/10 01:38:21;;;;;;;0.82;0.60;;;;;;;;;;1879875;76;26243;-44
2022/05/10 01:40:50;;;;;;;2.08;0.50;;;;;;;;;;1832280;76;26593;-43
2022/05/10 01:43:19;;;;;;;1.07;0.60;;;;;;;;;;1875035;75;26820;-46
2022/05/10 01:45:47;;;;;;;1.52;0.70;;;;;;;;;;1865107;75;26716;-43
2022/05/10 01:48:16;;;;;;;2.17;0.50;;;;;;;;;;1879664;76;26235;-44
2022/05/10 01:50:51;;;;;;;0.68;0.68;;;;;;;;;;1876626;76;26239;-45
2022/05/10 01:53:20;;;;;;;2.35;0.70;;;;;;;;;;1864989;76;26274;-44
2022/05/10 01:56:04;;;;;;;1.70;0.60;;;;;;;;;;1878536;76;26289;-44
2022/05/10 01:58:33;;;;;;;0.50;0.50;;;;;;;;;;1869685;75;26331;-44
2022/05/10 02:01:11;;;;;;;6.47;1.10;;;;;;;;;;1873394;76;26296;-45
2022/05/10 02:03:42;;;;;;;3.02;0.80;;;;;;;;;;1878841;76;26309;-44
2022/05/10 02:06:19;;;;;;;2.27;0.57;;;;;;;;;;1887483;75;26327;-41
2022/05/10 02:08:48;;;;;;;0.95;0.57;;;;;;;;;;1863462;76;26328;-44
2022/05/10 02:11:17;;;;;;;0.53;0.53;;;;;;;;;;1875342;75;26730;-44
2022/05/10 02:13:46;;;;;;;0.68;0.50;;;;;;;;;;1879607;76;26247;-45
2022/05/10 02:16:14;;;;;;;0.78;0.60;;;;;;;;;;1856819;76;26318;-43
2022/05/10 02:18:49;;;;;;;2.72;0.60;;;;;;;;;;1870204;76;26249;-40
2022/05/10 02:21:24;;;;;;;1.02;0.60;;;;;;;;;;1878310;75;26327;-46
2022/05/10 02:23:59;;;;;;;0.60;0.60;;;;;;;;;;1871154;75;26763;-43
2022/05/10 02:26:31;;;;;;;0.40;0.40;;;;;;;;;;1871810;76;26254;-42
2022/05/10 02:29:08;;;;;;;0.60;0.60;;;;;;;;;;1878086;75;26263;-44
2022/05/10 02:34:39;;;;;;;0.55;0.40;;;;;;;;;;1879032;76;26300;-44
2022/05/10 02:37:06;;;;;;;0.50;0.50;;;;;;;;;;1879845;75;26695;-46
2022/05/10 02:39:34;;;;;;;0.85;0.80;;;;;;;;;;1877838;75;26721;-45
2022/05/10 02:42:01;;;;;;;2.92;0.75;;;;;;;;;;1875683;76;26443;-45
2022/05/10 02:44:29;;;;;;;0.40;0.40;;;;;;;;;;1878495;76;26243;-45
2022/05/10 02:46:57;;;;;;;0.50;0.50;;;;;;;;;;1877163;76;26270;-43
2022/05/10 02:49:24;;;;;;;2.02;0.60;;;;;;;;;;1879068;76;26747;-41
2022/05/10 02:51:51;;;;;;;0.50;0.50;;;;;;;;;;1878977;75;26266;-44
2022/05/10 02:54:18;;;;;;;0.65;0.65;;;;;;;;;;1880099;76;26250;-42
2022/05/10 02:56:46;;;;;;;0.60;0.60;;;;;;;;;;1880248;76;26253;-45
2022/05/10 02:59:15;;;;;;;0.95;0.53;;;;;;;;;;1853011;75;26272;-43
2022/05/10 03:01:46;;;;;;;0.65;0.65;;;;;;;;;;1869401;76;26323;-41
2022/05/10 03:04:14;;;;;;;0.60;0.60;;;;;;;;;;1873705;75;26893;-41
2022/05/10 03:06:43;;;;;;;0.60;0.60;;;;;;;;;;1880212;76;26246;-41
2022/05/10 03:09:10;;;;;;;0.60;0.60;;;;;;;;;;1870211;76;26255;-43
2022/05/10 03:11:38;;;;;;;1.60;0.57;;;;;;;;;;1880048;76;26618;-41
2022/05/10 03:14:06;;;;;;;0.60;0.60;;;;;;;;;;1880126;75;26250;-42
2022/05/10 03:16:33;;;;;;;0.70;0.70;;;;;;;;;;1870850;75;26337;-41
2022/05/10 03:19:02;;;;;;;0.60;0.60;;;;;;;;;;1874176;76;26273;-43
2022/05/10 03:21:29;;;;;;;2.58;0.50;;;;;;;;;;1879875;76;26320;-41
2022/05/10 03:23:56;;;;;;;2.80;0.93;;;;;;;;;;1879926;76;26309;-48
2022/05/10 03:26:25;;;;;;;1.27;0.60;;;;;;;;;;1876299;76;26308;-47
2022/05/10 03:28:53;;;;;;;0.60;0.60;;;;;;;;;;1877146;75;26336;-43
2022/05/10 03:31:22;;;;;;;2.55;0.93;;;;;;;;;;1877458;75;26697;-43
2022/05/10 03:34:53;;;;;;;0.57;0.57;;;;;;;;;;1879551;76;26635;-42
2022/05/10 03:36:18;;;;;;;1.05;0.50;;;;;;;;;;1872456;76;26320;-41
2022/05/10 03:38:46;;;;;;;0.70;0.60;;;;;;;;;;1879760;76;26271;-44
2022/05/10 03:41:15;;;;;;;0.85;0.50;;;;;;;;;;1868113;75;26657;-45
2022/05/10 03:43:42;;;;;;;0.50;0.50;;;;;;;;;;1873141;76;26747;-42
2022/05/10 03:46:09;;;;;;;0.60;0.60;;;;;;;;;;1878920;76;27167;-44
2022/05/10 03:48:36;;;;;;;0.93;0.50;;;;;;;;;;1878861;76;26254;-44
2022/05/10 03:51:04;;;;;;;1.05;0.42;;;;;;;;;;1877050;76;26172;-41
2022/05/10 03:53:31;;;;;;;0.57;0.53;;;;;;;;;;1875430;76;26553;-41
2022/05/10 03:55:58;;;;;;;0.70;0.60;;;;;;;;;;1879807;76;26203;-44
2022/05/10 03:58:26;;;;;;;0.90;0.60;;;;;;;;;;1879152;76;26260;-43
2022/05/10 04:00:53;;;;;;;0.50;0.50;;;;;;;;;;1874509;76;26235;-46
2022/05/10 04:03:20;;;;;;;0.60;0.60;;;;;;;;;;1879688;76;26537;-46
2022/05/10 04:05:48;;;;;;;1.47;0.60;;;;;;;;;;1879781;76;26216;-44
2022/05/10 04:08:15;;;;;;;0.70;0.70;;;;;;;;;;1866312;76;26352;-44
2022/05/10 04:10:42;;;;;;;0.42;0.42;;;;;;;;;;1879682;76;26298;-42
2022/05/10 04:13:10;;;;;;;0.78;0.50;;;;;;;;;;1878212;76;26305;-41
2022/05/10 04:15:37;;;;;;;1.02;0.53;;;;;;;;;;1867561;75;26355;-41
2022/05/10 04:18:05;;;;;;;1.22;0.60;;;;;;;;;;1858246;76;26402;-40
2022/05/10 04:20:32;;;;;;;0.55;0.55;;;;;;;;;;1877751;76;26266;-43
2022/05/10 04:23:00;;;;;;;0.50;0.50;;;;;;;;;;1879743;76;26300;-42
2022/05/10 04:25:27;;;;;;;0.65;0.60;;;;;;;;;;1891510;75;26227;-40
2022/05/10 04:27:55;;;;;;;1.45;0.68;;;;;;;;;;1870363;75;26239;-46
2022/05/10 04:30:23;;;;;;;0.50;0.50;;;;;;;;;;1877546;76;26230;-46
2022/05/10 04:32:50;;;;;;;2.10;0.50;;;;;;;;;;1879736;76;26314;-46
2022/05/10 04:35:18;;;;;;;0.85;0.57;;;;;;;;;;1879921;76;26832;-42
2022/05/10 04:37:45;;;;;;;0.50;0.50;;;;;;;;;;1871237;75;26187;-42
2022/05/10 04:42:59;;;;;;;0.60;0.60;;;;;;;;;;1876347;76;26298;-44
2022/05/10 04:45:27;;;;;;;0.62;0.62;;;;;;;;;;1874656;76;26719;-41
2022/05/10 04:47:54;;;;;;;0.50;0.50;;;;;;;;;;1878156;75;26319;-43
2022/05/10 04:50:22;;;;;;;0.60;0.60;;;;;;;;;;1880257;76;26320;-41
2022/05/10 04:52:49;;;;;;;0.60;0.60;;;;;;;;;;1876414;76;27314;-42
2022/05/10 04:55:16;;;;;;;2.15;0.60;;;;;;;;;;1877553;76;26254;-46
2022/05/10 04:57:43;;;;;;;0.70;0.70;;;;;;;;;;1878219;76;26219;-44
2022/05/10 05:00:12;;;;;;;0.70;0.70;;;;;;;;;;1876132;75;26347;-43
2022/05/10 05:02:40;;;;;;;0.50;0.50;;;;;;;;;;1868847;76;26234;-43
2022/05/10 05:05:08;;;;;;;0.50;0.50;;;;;;;;;;1879730;76;26296;-41
2022/05/10 05:07:35;;;;;;;0.60;0.50;;;;;;;;;;1875059;76;26635;-44
2022/05/10 05:10:04;;;;;;;1.27;0.50;;;;;;;;;;1885772;75;26293;-43
2022/05/10 05:12:32;;;;;;;0.50;0.50;;;;;;;;;;1875134;76;26419;-43
2022/05/10 05:15:00;;;;;;;0.60;0.60;;;;;;;;;;1880202;76;26320;-41
2022/05/10 05:17:28;;;;;;;0.90;0.60;;;;;;;;;;1879975;76;27646;-41
2022/05/10 05:19:55;;;;;;;0.50;0.50;;;;;;;;;;1879988;76;26262;-41
2022/05/10 05:22:22;;;;;;;0.50;0.50;;;;;;;;;;1871712;75;26327;-45
2022/05/10 05:24:49;;;;;;;0.60;0.60;;;;;;;;;;1877206;76;26255;-41
2022/05/10 05:27:17;;;;;;;0.47;0.47;;;;;;;;;;1870136;76;26247;-43
2022/05/10 05:29:44;;;;;;;0.40;0.40;;;;;;;;;;1870310;76;26341;-42
2022/05/10 05:32:11;;;;;;;0.30;0.30;;;;;;;;;;1871051;75;26238;-56
2022/05/10 05:34:39;;;;;;;5.95;1.17;;;;;;;;;;1879187;75;27466;-47
2022/05/10 05:39:51;;;;;;;7.45;1.37;;;;;;;;;;1895194;74;26632;-42
2022/05/10 05:42:19;;;;;;;5.80;1.02;;;;;;;;;;1895304;74;26239;-49
2022/05/10 05:44:46;;;;;;;11.00;1.25;;;;;;;;;;1887823;74;26248;-41
2022/05/10 05:47:13;;;;;;;8.18;1.47;;;;;;;;;;1891828;74;26900;-44
2022/05/10 05:49:40;;;;;;;6.05;1.10;;;;;;;;;;1895359;75;26763;-42
2022/05/10 05:52:08;;;;;;;4.35;1.20;;;;;;;;;;1890609;74;26886;-45
2022/05/10 05:54:35;;;;;;;6.95;1.20;;;;;;;;;;1897690;74;26837;-47
2022/05/10 05:57:03;;;;;;;15.98;1.20;;;;;;;;;;1892199;75;26757;-49
2022/05/10 05:59:31;;;;;;;2.35;0.82;;;;;;;;;;1893822;75;26191;-46
2022/05/10 06:01:58;;;;;;;8.00;1.12;;;;;;;;;;1890356;75;26321;-45
2022/05/10 06:04:26;;;;;;;4.67;0.90;;;;;;;;;;1888594;75;26246;-42
2022/05/10 06:06:53;;;;;;;2.65;0.80;;;;;;;;;;1893455;74;26266;-43
2022/05/10 06:09:22;;;;;;;6.45;0.90;;;;;;;;;;1887975;75;26356;-46
2022/05/10 06:11:50;;;;;;;2.58;0.93;;;;;;;;;;1895344;75;27135;-47
2022/05/10 06:14:18;;;;;;;4.65;0.88;;;;;;;;;;1891566;75;26740;-43
2022/05/10 06:16:45;;;;;;;5.40;0.70;;;;;;;;;;1875529;74;26254;-48
2022/05/10 06:19:13;;;;;;;4.58;0.80;;;;;;;;;;1887531;74;26292;-47
2022/05/10 06:21:41;;;;;;;5.08;1.00;;;;;;;;;;1890664;74;26402;-49
2022/05/10 06:24:11;;;;;;;3.02;1.07;;;;;;;;;;1893933;75;26234;-47
2022/05/10 06:26:38;;;;;;;0.75;0.70;;;;;;;;;;1891141;75;26239;-44
2022/05/10 06:29:05;;;;;;;32.88;1.80;;;;;;;;;;1891804;75;26227;-46
2022/05/10 06:31:33;;;;;;;14.07;1.15;;;;;;;;;;1891889;74;27290;-45
2022/05/10 06:34:00;;;;;;;7.42;1.00;;;;;;;;;;1892637;74;26304;-49
2022/05/10 06:36:27;;;;;;;1.70;0.80;;;;;;;;;;1879124;75;26321;-46
2022/05/10 06:38:55;;;;;;;7.78;0.88;;;;;;;;;;1878826;76;26300;-46
2022/05/10 06:41:22;;;;;;;2.70;0.90;;;;;;;;;;1877088;75;26247;-46
2022/05/10 06:43:49;;;;;;;5.22;0.75;;;;;;;;;;1875355;75;26243;-45
2022/05/10 06:46:19;;;;;;;3.15;0.70;;;;;;;;;;1877179;76;26231;-44
2022/05/10 06:48:47;;;;;;;5.05;0.85;;;;;;;;;;1870697;75;26915;-45
2022/05/10 06:51:16;;;;;;;1.67;0.72;;;;;;;;;;1881384;75;26305;-44
2022/05/10 06:53:44;;;;;;;0.80;0.80;;;;;;;;;;1872095;75;26246;-46
2022/05/10 06:56:12;;;;;;;1.20;1.00;;;;;;;;;;1874982;76;26279;-48
2022/05/10 06:58:39;;;;;;;0.93;0.70;;;;;;;;;;1875971;75;26254;-49
2022/05/10 07:01:11;;;;;;;1.47;0.80;;;;;;;;;;1875176;76;26238;-44
2022/05/10 07:03:37;;;;;;;5.67;1.10;;;;;;;;;;1875845;75;26755;-44
2022/05/10 07:06:05;;;;;;;3.58;1.10;;;;;;;;;;1877268;75;26297;-46
2022/05/10 07:08:33;;;;;;;1.32;1.10;;;;;;;;;;1876537;76;26746;-43
2022/05/10 07:11:01;;;;;;;1.90;1.00;;;;;;;;;;1879493;75;26266;-41
2022/05/10 07:13:29;;;;;;;4.25;1.00;;;;;;;;;;1876980;75;26799;-43
2022/05/10 07:15:57;;;;;;;3.30;0.88;;;;;;;;;;1878335;75;26770;-43
2022/05/10 07:18:25;;;;;;;5.67;1.30;;;;;;;;;;1878036;75;26288;-44
2022/05/10 07:20:53;;;;;;;4.22;1.25;;;;;;;;;;1877265;75;26654;-43
2022/05/10 07:23:25;;;;;;;3.20;1.10;;;;;;;;;;1877637;75;26227;-47
2022/05/10 07:25:53;;;;;;;2.50;1.02;;;;;;;;;;1874541;75;26227;-42
2022/05/10 07:28:20;;;;;;;3.45;0.93;;;;;;;;;;1871148;75;26853;-43
2022/05/10 07:30:48;;;;;;;4.87;1.10;;;;;;;;;;1871798;75;26760;-44
2022/05/10 07:33:19;;;;;;;1.98;0.95;;;;;;;;;;1878381;76;26195;-44
2022/05/10 07:38:32;;;;;;;1.45;0.90;;;;;;;;;;1877240;76;26381;-46
2022/05/10 07:40:59;;;;;;;4.03;0.80;;;;;;;;;;1873956;75;26849;-44
2022/05/10 07:43:27;;;;;;;1.20;1.10;;;;;;;;;;1869636;76;26738;-48
2022/05/10 07:45:55;;;;;;;3.12;1.00;;;;;;;;;;1879132;76;26275;-45
2022/05/10 07:48:22;;;;;;;2.58;0.80;;;;;;;;;;1879108;76;26711;-45
2022/05/10 07:50:50;;;;;;;5.78;1.15;;;;;;;;;;1874748;75;26331;-44
2022/05/10 07:53:18;;;;;;;3.08;1.12;;;;;;;;;;1879873;75;26649;-44
2022/05/10 07:55:45;;;;;;;3.50;1.10;;;;;;;;;;1867426;75;28337;-45
2022/05/10 07:58:13;;;;;;;3.08;0.85;;;;;;;;;;1879902;76;26321;-44
2022/05/10 08:00:42;;;;;;;4.50;1.05;;;;;;;;;;1854719;75;26267;-42
2022/05/10 08:03:11;;;;;;;3.20;1.02;;;;;;;;;;1872891;76;26243;-43
2022/05/10 08:05:38;;;;;;;1.52;0.90;;;;;;;;;;1853456;76;26776;-46
2022/05/10 08:08:05;;;;;;;4.08;1.15;;;;;;;;;;1872617;76;26234;-50
2022/05/10 08:10:33;;;;;;;1.57;1.07;;;;;;;;;;1865678;75;26758;-45
2022/05/10 08:13:00;;;;;;;2.45;0.90;;;;;;;;;;1867335;75;26258;-45
2022/05/10 08:15:28;;;;;;;8.68;1.20;;;;;;;;;;1878608;75;26278;-45
2022/05/10 08:17:55;;;;;;;1.75;1.00;;;;;;;;;;1868159;75;26253;-44
2022/05/10 08:20:23;;;;;;;1.05;0.88;;;;;;;;;;1848499;75;28629;-45
2022/05/10 08:22:50;;;;;;;3.62;1.05;;;;;;;;;;1865934;75;26241;-42
2022/05/10 08:25:17;;;;;;;4.30;0.90;;;;;;;;;;1884560;75;26250;-47
2022/05/10 08:27:44;;;;;;;1.42;1.32;;;;;;;;;;1864885;75;26355;-50
2022/05/10 08:30:12;;;;;;;2.55;1.10;;;;;;;;;;1863246;76;26418;-49
2022/05/10 08:32:40;;;;;;;1.90;1.02;;;;;;;;;;1848345;76;27338;-44
2022/05/10 08:35:08;;;;;;;4.55;1.00;;;;;;;;;;1860613;75;26859;-45
2022/05/10 08:37:38;;;;;;;1.27;0.80;;;;;;;;;;1882746;75;27334;-44
2022/05/10 08:40:06;;;;;;;5.37;1.17;;;;;;;;;;1880376;76;26828;-46
2022/05/10 08:42:34;;;;;;;6.92;1.00;;;;;;;;;;1880467;75;26654;-49
2022/05/10 08:45:03;;;;;;;0.90;0.90;;;;;;;;;;1857091;76;26226;-48
2022/05/10 08:47:31;;;;;;;1.87;0.95;;;;;;;;;;1888495;75;26861;-45
2022/05/10 08:49:59;;;;;;;4.37;1.05;;;;;;;;;;1853739;76;26263;-48
2022/05/10 08:52:31;;;;;;;1.35;0.90;;;;;;;;;;1844427;78;26285;-45
2022/05/10 08:54:59;;;;;;;1.25;1.10;;;;;;;;;;1807158;78;26747;-45
2022/05/10 08:57:37;;;;;;;1.10;1.00;;;;;;;;;;1878363;76;26293;-47
2022/05/10 09:00:06;;;;;;;5.47;1.02;;;;;;;;;;1871160;75;26661;-44
2022/05/10 09:02:37;;;;;;;2.85;1.15;;;;;;;;;;1865506;76;26246;-45
2022/05/10 09:05:06;;;;;;;2.47;1.00;;;;;;;;;;1835783;78;26286;-45
2022/05/10 09:07:41;;;;;;;2.35;0.90;;;;;;;;;;1822066;78;26299;-47
2022/05/10 09:10:22;;;;;;;2.33;1.20;;;;;;;;;;1818539;78;26331;-45
2022/05/10 09:12:54;;;;;;;2.40;0.80;;;;;;;;;;1863378;76;26745;-44
2022/05/10 09:15:21;;;;;;;0.70;0.70;;;;;;;;;;1850800;76;26268;-45
2022/05/10 09:17:49;;;;;;;2.35;1.27;;;;;;;;;;1857495;75;26701;-45
2022/05/10 09:20:17;;;;;;;0.70;0.70;;;;;;;;;;1857761;76;26347;-45
2022/05/10 09:23:02;;;;;;;5.37;0.90;;;;;;;;;;1848940;75;27344;-47
2022/05/10 09:25:31;;;;;;;0.80;0.80;;;;;;;;;;1848553;77;26779;-45
2022/05/10 09:28:00;;;;;;;2.00;0.95;;;;;;;;;;1854588;76;26282;-46
2022/05/10 09:30:29;;;;;;;0.70;0.70;;;;;;;;;;1856953;76;26347;-46
2022/05/10 09:35:51;;;;;;;1.95;0.93;;;;;;;;;;1849104;76;26340;-45
2022/05/10 09:38:19;;;;;;;1.95;0.90;;;;;;;;;;1856777;77;26283;-46
2022/05/10 09:40:47;;;;;;;0.88;0.88;;;;;;;;;;1856837;77;26676;-48
2022/05/10 09:43:32;;;;;;;0.82;0.80;;;;;;;;;;1862474;74;26293;-46
2022/05/10 09:46:10;;;;;;;0.75;0.72;;;;;;;;;;1857607;77;26718;-48
2022/05/10 09:48:39;;;;;;;0.70;0.70;;;;;;;;;;1856890;77;26284;-44
2022/05/10 09:51:26;;;;;;;1.65;0.70;;;;;;;;;;1856956;77;26715;-45
2022/05/10 09:53:54;;;;;;;1.00;0.75;;;;;;;;;;1856815;77;26915;-45
2022/05/10 09:56:26;;;;;;;0.70;0.70;;;;;;;;;;1857112;74;26269;-46
2022/05/10 09:59:01;;;;;;;0.80;0.80;;;;;;;;;;1870002;75;26259;-44
2022/05/10 10:01:39;;;;;;;1.92;0.80;;;;;;;;;;1919164;75;26336;-46
2022/05/10 10:04:13;;;;;;;0.70;0.70;;;;;;;;;;1919226;75;26346;-47
2022/05/10 10:06:41;;;;;;;1.32;1.20;;;;;;;;;;1869406;74;26269;-45
2022/05/10 10:09:08;;;;;;;1.27;0.65;;;;;;;;;;1896478;75;26668;-44
2022/05/10 10:11:38;;;;;;;0.70;0.68;;;;;;;;;;1857917;77;26328;-43
2022/05/10 10:14:07;;;;;;;1.00;1.00;;;;;;;;;;1857892;76;26277;-44
2022/05/10 10:16:35;;;;;;;1.07;0.80;;;;;;;;;;1881964;76;26734;-45
2022/05/10 10:19:04;;;;;;;1.02;0.70;;;;;;;;;;1855830;77;26285;-46
2022/05/10 10:21:36;;;;;;;0.85;0.70;;;;;;;;;;1856418;76;26270;-44
2022/05/10 10:24:04;;;;;;;0.70;0.70;;;;;;;;;;1856064;77;26735;-45
2022/05/10 10:26:32;;;;;;;0.60;0.60;;;;;;;;;;1856387;77;26344;-44
2022/05/10 10:29:04;;;;;;;0.60;0.60;;;;;;;;;;1889760;74;26732;-45
2022/05/10 10:31:33;;;;;;;0.80;0.80;;;;;;;;;;1857623;76;26293;-44
2022/05/10 10:34:02;;;;;;;0.70;0.70;;;;;;;;;;1866490;76;26243;-43
2022/05/10 10:36:30;;;;;;;1.02;0.70;;;;;;;;;;1891460;75;26322;-46
2022/05/10 10:39:16;;;;;;;0.72;0.72;;;;;;;;;;1895953;75;26215;-45
2022/05/10 10:42:01;;;;;;;1.25;0.70;;;;;;;;;;1864347;77;26354;-45
2022/05/10 10:44:30;;;;;;;1.15;0.62;;;;;;;;;;1889557;75;26246;-43
2022/05/10 10:46:59;;;;;;;0.70;0.70;;;;;;;;;;1866930;75;26653;-46
2022/05/10 10:49:28;;;;;;;0.93;0.80;;;;;;;;;;1860853;76;26601;-45
2022/05/10 10:51:55;;;;;;;0.80;0.80;;;;;;;;;;1863749;74;26272;-45
2022/05/10 10:54:24;;;;;;;0.82;0.80;;;;;;;;;;1864127;77;26337;-45
2022/05/10 10:56:55;;;;;;;0.95;0.95;;;;;;;;;;1864142;76;26264;-44
2022/05/10 10:59:42;;;;;;;0.72;0.72;;;;;;;;;;1884793;74;26295;-44
2022/05/10 11:02:11;;;;;;;0.60;0.60;;;;;;;;;;1859078;76;26288;-43
2022/05/10 11:04:40;;;;;;;0.60;0.60;;;;;;;;;;1862064;77;26274;-44
2022/05/10 11:07:08;;;;;;;0.65;0.65;;;;;;;;;;1875379;75;26371;-43
2022/05/10 11:09:40;;;;;;;0.62;0.62;;;;;;;;;;1868281;75;26280;-44
2022/05/10 11:12:27;;;;;;;1.02;0.88;;;;;;;;;;1864176;74;26260;-47
2022/05/10 11:14:56;;;;;;;0.70;0.70;;;;;;;;;;1863300;74;26779;-44
2022/05/10 11:17:25;;;;;;;0.70;0.70;;;;;;;;;;1863167;76;26740;-45
2022/05/10 11:20:11;;;;;;;0.55;0.55;;;;;;;;;;1863955;76;26326;-45
2022/05/10 11:22:40;;;;;;;0.70;0.70;;;;;;;;;;1864185;76;26315;-47
2022/05/10 11:25:26;;;;;;;0.70;0.70;;;;;;;;;;1864052;74;26283;-45
2022/05/10 11:28:12;;;;;;;0.55;0.55;;;;;;;;;;1881404;74;26231;-47
2022/05/10 11:30:51;;;;;;;0.60;0.60;;;;;;;;;;1875773;75;26287;-47
2022/05/10 11:33:23;;;;;;;0.60;0.60;;;;;;;;;;1864053;76;27239;-46
2022/05/10 11:36:05;;;;;;;0.60;0.60;;;;;;;;;;1878580;74;26382;-45
2022/05/10 11:38:50;;;;;;;1.27;0.60;;;;;;;;;;1858226;76;26335;-46
2022/05/10 11:41:21;;;;;;;0.70;0.70;;;;;;;;;;1856077;74;26469;-44
2022/05/10 11:43:49;;;;;;;0.62;0.62;;;;;;;;;;1872531;74;26761;-46
2022/05/10 11:46:35;;;;;;;1.22;0.70;;;;;;;;;;1882671;75;26690;-45
2022/05/10 11:49:04;;;;;;;0.60;0.60;;;;;;;;;;1886024;76;26341;-46
2022/05/10 11:51:39;;;;;;;0.60;0.60;;;;;;;;;;1886049;76;26188;-45
2022/05/10 11:54:13;;;;;;;0.68;0.68;;;;;;;;;;1877935;74;26248;-44
2022/05/10 11:56:41;;;;;;;0.60;0.60;;;;;;;;;;1860548;76;26262;-44
2022/05/10 11:59:10;;;;;;;0.70;0.70;;;;;;;;;;1864541;76;26251;-47
2022/05/10 12:01:40;;;;;;;0.72;0.72;;;;;;;;;;1872973;76;26860;-44
2022/05/10 12:04:07;;;;;;;1.00;0.70;;;;;;;;;;1882748;76;26332;-44
2022/05/10 12:06:36;;;;;;;0.60;0.60;;;;;;;;;;1857884;74;26729;-44
2022/05/10 12:09:04;;;;;;;0.70;0.70;;;;;;;;;;1874215;76;26204;-47
2022/05/10 12:11:34;;;;;;;0.60;0.60;;;;;;;;;;1880380;76;26740;-44
2022/05/10 12:22:47;;;;;;;0.70;0.70;;;;;;;;;;1857936;77;26249;-44
2022/05/10 12:25:33;;;;;;;0.70;0.70;;;;;;;;;;1857833;76;26382;-47
2022/05/10 12:28:01;;;;;;;0.70;0.70;;;;;;;;;;1857580;75;26296;-45
2022/05/10 12:30:30;;;;;;;0.70;0.70;;;;;;;;;;1856403;77;26231;-44
2022/05/10 12:32:58;;;;;;;0.70;0.70;;;;;;;;;;1839756;77;26305;-47
2022/05/10 12:35:35;;;;;;;0.70;0.70;;;;;;;;;;1831920;78;26310;-51
2022/05/10 12:38:02;;;;;;;0.70;0.70;;;;;;;;;;1831472;74;26286;-45
2022/05/10 12:40:34;;;;;;;0.80;0.80;;;;;;;;;;1899512;75;26289;-46
2022/05/10 12:43:09;;;;;;;0.70;0.70;;;;;;;;;;1891436;74;26265;-46
2022/05/10 12:45:41;;;;;;;0.80;0.80;;;;;;;;;;1866619;76;26269;-46
2022/05/10 12:48:13;;;;;;;0.80;0.80;;;;;;;;;;1862753;76;26332;-48
2022/05/10 12:50:59;;;;;;;0.70;0.70;;;;;;;;;;1870650;75;26358;-46
2022/05/10 12:53:47;;;;;;;1.37;0.70;;;;;;;;;;1857970;77;26244;-44
2022/05/10 12:56:24;;;;;;;0.95;0.90;;;;;;;;;;1857554;77;26319;-45
2022/05/10 12:58:53;;;;;;;0.80;0.80;;;;;;;;;;1870284;74;26718;-46
2022/05/10 13:01:22;;;;;;;0.90;0.90;;;;;;;;;;1921944;74;26340;-48
2022/05/10 13:03:54;;;;;;;0.80;0.80;;;;;;;;;;1919737;74;26199;-46
2022/05/10 13:06:23;;;;;;;0.72;0.72;;;;;;;;;;1919494;75;26339;-46
2022/05/10 13:09:00;;;;;;;0.78;0.78;;;;;;;;;;1886423;75;26288;-45
2022/05/10 13:11:31;;;;;;;0.85;0.85;;;;;;;;;;1857884;77;26351;-44
2022/05/10 13:14:00;;;;;;;0.90;0.90;;;;;;;;;;1911960;74;26266;-45
2022/05/10 13:16:28;;;;;;;0.93;0.93;;;;;;;;;;1896082;75;26223;-45
2022/05/10 13:18:57;;;;;;;0.90;0.90;;;;;;;;;;1886629;76;26212;-47
2022/05/10 13:21:26;;;;;;;0.90;0.90;;;;;;;;;;1886633;75;26320;-47
2022/05/10 13:23:55;;;;;;;1.00;1.00;;;;;;;;;;1886846;74;26271;-43
2022/05/10 13:26:22;;;;;;;0.90;0.90;;;;;;;;;;1886638;76;26294;-45
2022/05/10 13:28:54;;;;;;;0.82;0.82;;;;;;;;;;1863270;75;26307;-46
2022/05/10 13:31:23;;;;;;;0.80;0.80;;;;;;;;;;1875695;76;26301;-51
2022/05/10 13:33:50;;;;;;;0.90;0.90;;;;;;;;;;1886722;76;26255;-45
2022/05/10 13:36:20;;;;;;;0.75;0.75;;;;;;;;;;1885822;75;26277;-44
2022/05/10 13:38:49;;;;;;;0.90;0.90;;;;;;;;;;1861191;76;26332;-44
2022/05/10 13:41:17;;;;;;;0.90;0.90;;;;;;;;;;1864243;77;26265;-47
2022/05/10 13:43:46;;;;;;;0.90;0.90;;;;;;;;;;1870896;75;26300;-44
2022/05/10 13:46:18;;;;;;;0.90;0.90;;;;;;;;;;1895931;75;26595;-46
2022/05/10 13:48:49;;;;;;;0.93;0.93;;;;;;;;;;1895182;75;26704;-46
2022/05/10 13:51:21;;;;;;;0.78;0.78;;;;;;;;;;1892860;76;26336;-44
2022/05/10 13:53:59;;;;;;;0.90;0.90;;;;;;;;;;1894491;76;26308;-47
2022/05/10 13:56:29;;;;;;;0.98;0.98;;;;;;;;;;1894790;76;26262;-44
2022/05/10 13:58:57;;;;;;;0.88;0.88;;;;;;;;;;1888353;75;26361;-44
2022/05/10 14:01:32;;;;;;;0.80;0.80;;;;;;;;;;1863926;77;26393;-44
2022/05/10 14:04:06;;;;;;;0.80;0.80;;;;;;;;;;1864017;77;26871;-45
2022/05/10 14:06:34;;;;;;;0.90;0.90;;;;;;;;;;1863971;77;26814;-47
2022/05/10 14:09:07;;;;;;;0.93;0.93;;;;;;;;;;1878830;74;26217;-46
2022/05/10 14:11:32;;;;;;;0.80;0.80;;;;;;;;;;1928825;74;26241;-43
2022/05/10 14:14:00;;;;;;;1.00;1.00;;;;;;;;;;1929387;74;26261;-47
2022/05/10 14:16:32;;;;;;;0.90;0.90;;;;;;;;;;1905658;74;26282;-46
2022/05/10 14:19:01;;;;;;;0.95;0.95;;;;;;;;;;1895987;75;26265;-47
2022/05/10 14:21:30;;;;;;;0.70;0.70;;;;;;;;;;1895411;74;26266;-45
2022/05/10 14:23:58;;;;;;;1.00;1.00;;;;;;;;;;1896165;75;26741;-45
2022/05/10 14:26:33;;;;;;;1.00;1.00;;;;;;;;;;1895847;75;26231;-44
2022/05/10 14:29:08;;;;;;;0.90;0.90;;;;;;;;;;1895776;74;26270;-46
2022/05/10 14:31:37;;;;;;;1.00;1.00;;;;;;;;;;1863462;75;26686;-47
2022/05/10 14:34:02;;;;;;;1.00;1.00;;;;;;;;;;1862129;76;26328;-45
2022/05/10 14:36:37;;;;;;;0.80;0.80;;;;;;;;;;1863876;77;26346;-44
2022/05/10 14:39:08;;;;;;;0.90;0.90;;;;;;;;;;1854266;76;26776;-44
2022/05/10 14:41:37;;;;;;;0.98;0.98;;;;;;;;;;1848911;77;26362;-44
2022/05/10 14:44:14;;;;;;;0.90;0.90;;;;;;;;;;1861968;75;26203;-47
2022/05/10 14:46:53;;;;;;;0.93;0.90;;;;;;;;;;1877470;76;27204;-44
2022/05/10 14:49:38;;;;;;;0.93;0.93;;;;;;;;;;1856568;75;26257;-44
2022/05/10 14:52:24;;;;;;;1.10;1.10;;;;;;;;;;1848960;77;26342;-45
2022/05/10 14:54:52;;;;;;;1.10;1.10;;;;;;;;;;1814657;76;26681;-44
2022/05/10 14:57:24;;;;;;;1.00;1.00;;;;;;;;;;1848737;77;26804;-46
2022/05/10 14:59:53;;;;;;;0.90;0.90;;;;;;;;;;1861021;76;26251;-46
2022/05/10 15:02:26;;;;;;;0.88;0.88;;;;;;;;;;1880551;76;26859;-44
2022/05/10 15:04:54;;;;;;;1.00;1.00;;;;;;;;;;1880490;75;26270;-46
2022/05/10 15:07:21;;;;;;;0.90;0.90;;;;;;;;;;1901658;75;25983;-48
2022/05/10 15:09:49;;;;;;;0.90;0.90;;;;;;;;;;1898434;75;26322;-49
2022/05/10 15:15:02;;;;;;;1.00;1.00;;;;;;;;;;1869463;76;26704;-43
2022/05/10 15:18:58;;;;;;;0.88;0.88;;;;;;;;;;1880370;75;26263;-45
2022/05/10 15:19:59;;;;;;;0.90;0.90;;;;;;;;;;1876902;76;26215;-47
2022/05/10 15:22:26;;;;;;;1.00;1.00;;;;;;;;;;1880548;76;26849;-45
2022/05/10 15:24:53;;;;;;;0.95;0.95;;;;;;;;;;1880531;76;26848;-45
2022/05/10 15:27:23;;;;;;;0.82;0.82;;;;;;;;;;1880452;76;27270;-46